Terminal Aerodrome Forecast
Issued by NWS Pueblo, CO

Home | Current Version | Previous Version | Text Only | Print | Product List | Glossary On
Versions: 1 2 3 4 5 6 7 8 9 10 11 12 13 14 15 16 17 18 19 20 21 22 23 24 25 26 27 28 29 30 31 32
000
FTUS45 KPUB 021120
TAFALS
TAF
KALS 021120Z 0212/0312 VRB04KT P6SM FEW080 OVC150
     FM021500 VRB04KT P6SM SCT080 BKN150
     FM022100 08012KT P6SM VCTS BKN080CB
     FM030300 10008KT P6SM SCT080 BKN100=

USA.gov is the U.S. government's official web portal to all federal, state and local government web resources and services.